createdAt,value
2023-02-12T00:00:22.917Z,63.58
2023-02-12T00:01:24.602Z,63.54
2023-02-12T00:02:26.208Z,63.34
2023-02-12T00:03:27.733Z,63.47
2023-02-12T00:04:29.214Z,63.59
2023-02-12T00:05:31.219Z,63.47
2023-02-12T00:06:32.697Z,63.29
2023-02-12T00:07:34.133Z,63.34
2023-02-12T00:08:35.735Z,63.27
2023-02-12T00:09:37.249Z,63.53
2023-02-12T00:10:43.135Z,63.38
2023-02-12T00:11:44.671Z,63.48
2023-02-12T00:12:46.118Z,63.45
2023-02-12T00:13:47.650Z,63.50
2023-02-12T00:14:49.221Z,63.82
2023-02-12T00:15:50.770Z,63.80
2023-02-12T00:16:52.364Z,63.60
2023-02-12T00:17:53.828Z,63.73
2023-02-12T00:18:55.755Z,63.55
2023-02-12T00:19:57.290Z,63.63
2023-02-12T00:20:59.272Z,63.60
2023-02-12T00:22:00.800Z,63.65
2023-02-12T00:23:02.254Z,63.74
2023-02-12T00:24:03.804Z,63.73
2023-02-12T00:25:05.343Z,63.72
2023-02-12T00:26:07.600Z,63.63
2023-02-12T00:27:09.090Z,63.64
2023-02-12T00:28:10.676Z,63.67
2023-02-12T00:29:12.122Z,63.79
2023-02-12T00:30:13.662Z,63.70
2023-02-12T00:31:16.265Z,63.83
2023-02-12T00:32:21.012Z,64.02
2023-02-12T00:33:22.483Z,63.92
2023-02-12T00:34:24.046Z,63.94
2023-02-12T00:35:25.550Z,64.03
2023-02-12T00:36:27.520Z,64.08
2023-02-12T00:37:29.010Z,64.07
2023-02-12T00:38:30.465Z,64.17
2023-02-12T00:39:31.958Z,63.96
2023-02-12T00:40:33.512Z,64.16
2023-02-12T00:41:35.013Z,63.96
2023-02-12T00:42:36.606Z,64.00
2023-02-12T00:43:38.145Z,64.01
2023-02-12T00:44:39.642Z,63.89
2023-02-12T00:45:41.094Z,64.12
2023-02-12T00:46:42.670Z,64.22
2023-02-12T00:47:44.195Z,64.06
2023-02-12T00:48:45.757Z,64.02
2023-02-12T00:49:47.268Z,64.10
2023-02-12T00:50:48.707Z,64.05
2023-02-12T00:51:50.309Z,64.03
2023-02-12T00:52:51.767Z,63.93
2023-02-12T00:53:53.287Z,64.07
2023-02-12T00:54:54.922Z,63.92
2023-02-12T00:55:56.795Z,63.93
2023-02-12T00:56:59.045Z,63.87
2023-02-12T00:58:04.008Z,63.72
2023-02-12T00:59:05.497Z,63.83
2023-02-12T01:00:07.366Z,63.58
2023-02-12T01:01:10.035Z,63.75
2023-02-12T01:02:11.574Z,63.61
2023-02-12T01:03:13.138Z,63.70
2023-02-12T01:04:14.676Z,63.75
2023-02-12T01:05:16.191Z,63.81
2023-02-12T01:06:19.061Z,63.69
2023-02-12T01:07:21.856Z,63.77
2023-02-12T01:08:23.937Z,63.71
2023-02-12T01:09:25.523Z,63.70
2023-02-12T01:10:27.502Z,63.73
2023-02-12T01:11:29.066Z,63.92
2023-02-12T01:12:30.578Z,63.76
2023-02-12T01:13:32.113Z,63.91
2023-02-12T01:14:35.425Z,63.84
2023-02-12T01:15:38.509Z,63.80
2023-02-12T01:16:40.347Z,64.00
2023-02-12T01:17:41.938Z,63.77
2023-02-12T01:18:43.598Z,63.77
2023-02-12T01:19:45.057Z,63.89
2023-02-12T01:20:46.599Z,63.74
2023-02-12T01:21:48.086Z,63.86
2023-02-12T01:22:49.730Z,63.81
2023-02-12T01:23:51.215Z,63.82
2023-02-12T01:24:52.670Z,63.95
2023-02-12T01:25:54.639Z,63.80
2023-02-12T01:26:56.464Z,63.91
2023-02-12T01:27:57.973Z,63.94
2023-02-12T01:29:01.387Z,64.09
2023-02-12T01:30:03.754Z,63.45
2023-02-12T01:31:11.573Z,63.79
2023-02-12T01:32:13.208Z,63.86
2023-02-12T01:33:14.780Z,63.97
2023-02-12T01:34:16.477Z,63.92
2023-02-12T01:35:17.982Z,64.03
2023-02-12T01:36:19.527Z,64.18
2023-02-12T01:37:23.077Z,64.21
2023-02-12T01:38:24.529Z,64.08
2023-02-12T01:39:26.052Z,64.22
2023-02-12T01:40:27.562Z,64.18
2023-02-12T01:41:30.214Z,64.01
2023-02-12T01:42:31.750Z,64.26
2023-02-12T01:43:36.776Z,64.23
2023-02-12T01:44:39.713Z,64.13
2023-02-12T01:45:41.265Z,64.20
2023-02-12T01:46:43.869Z,64.16
2023-02-12T01:47:45.466Z,64.20
2023-02-12T01:48:46.923Z,64.20
2023-02-12T01:49:48.442Z,64.20
2023-02-12T01:50:49.982Z,64.24
2023-02-12T01:51:55.593Z,64.21
2023-02-12T01:52:57.459Z,64.14
2023-02-12T01:53:59.534Z,64.19
2023-02-12T01:55:01.780Z,63.97
2023-02-12T01:56:03.467Z,64.12
2023-02-12T01:57:05.400Z,64.15
2023-02-12T01:58:06.918Z,63.94
2023-02-12T01:59:08.435Z,64.06
2023-02-12T02:00:11.011Z,64.07
2023-02-12T02:01:18.906Z,63.95
2023-02-12T02:02:20.513Z,64.02
2023-02-12T02:03:23.376Z,64.00
2023-02-12T02:04:26.917Z,64.17
2023-02-12T02:05:48.083Z,64.27
2023-02-12T02:06:50.955Z,64.12
2023-02-12T02:07:52.627Z,64.14
2023-02-12T02:08:54.864Z,64.10
2023-02-12T02:09:56.727Z,64.19
2023-02-12T02:10:58.171Z,64.23
2023-02-12T02:12:19.001Z,64.14
2023-02-12T02:13:39.269Z,64.27
2023-02-12T02:14:40.779Z,64.09
2023-02-12T02:15:42.730Z,64.15
2023-02-12T02:16:46.310Z,64.26
2023-02-12T02:18:01.209Z,64.21
2023-02-12T02:19:03.258Z,64.36
2023-02-12T02:20:19.626Z,64.28
2023-02-12T02:21:27.269Z,64.31
2023-02-12T02:22:31.801Z,64.44
2023-02-12T02:23:52.285Z,64.44
2023-02-12T02:25:07.741Z,64.67
2023-02-12T02:26:27.468Z,64.87
2023-02-12T02:27:47.698Z,64.72
2023-02-12T02:29:15.320Z,64.84
2023-02-12T02:30:19.731Z,64.69
2023-02-12T02:31:31.116Z,64.97
2023-02-12T02:32:34.985Z,64.89
2023-02-12T02:33:38.058Z,64.92
2023-02-12T02:35:14.907Z,64.90
2023-02-12T02:36:21.161Z,64.96
2023-02-12T02:37:41.031Z,64.94
2023-02-12T02:38:50.737Z,65.19
2023-02-12T02:39:53.062Z,64.88
2023-02-12T02:41:02.795Z,65.06
2023-02-12T02:42:04.280Z,65.03
2023-02-12T02:43:07.323Z,65.01
2023-02-12T02:44:10.728Z,65.08
2023-02-12T02:45:25.989Z,65.03
2023-02-12T02:46:41.303Z,65.11
2023-02-12T02:47:51.433Z,64.97
2023-02-12T02:48:53.834Z,65.01
2023-02-12T02:49:56.543Z,65.06
2023-02-12T02:50:59.651Z,65.04
2023-02-12T02:52:02.094Z,64.95
2023-02-12T02:53:07.598Z,64.91
2023-02-12T02:54:13.203Z,64.89
2023-02-12T02:55:15.430Z,65.02
2023-02-12T02:56:17.804Z,64.91
2023-02-12T02:57:26.358Z,64.90
2023-02-12T02:58:38.128Z,64.98
2023-02-12T02:59:41.808Z,64.91
2023-02-12T03:00:44.437Z,64.83
2023-02-12T03:01:51.059Z,64.93
2023-02-12T03:02:54.289Z,64.69
2023-02-12T03:04:01.321Z,64.80
2023-02-12T03:05:23.066Z,64.79
2023-02-12T03:06:24.578Z,64.74
2023-02-12T03:07:27.884Z,64.83
2023-02-12T03:08:34.692Z,64.84
2023-02-12T03:09:38.001Z,64.89
2023-02-12T03:10:46.089Z,64.77
2023-02-12T03:11:47.593Z,64.96
2023-02-12T03:12:49.052Z,64.92
2023-02-12T03:14:01.772Z,64.94
2023-02-12T03:15:05.551Z,64.92
2023-02-12T03:16:09.210Z,64.95
2023-02-12T03:17:13.056Z,64.97
2023-02-12T03:18:20.110Z,65.07
2023-02-12T03:19:22.921Z,64.80
2023-02-12T03:20:29.265Z,65.17
2023-02-12T03:21:36.466Z,65.15
2023-02-12T03:22:39.609Z,65.05
2023-02-12T03:23:42.938Z,65.12
2023-02-12T03:24:45.275Z,65.20
2023-02-12T03:25:49.429Z,64.90
2023-02-12T03:26:52.376Z,65.26
2023-02-12T03:27:59.783Z,65.14
2023-02-12T03:29:01.280Z,65.15
2023-02-12T03:30:04.037Z,65.08
2023-02-12T03:31:24.749Z,65.19
2023-02-12T03:32:32.096Z,65.09
2023-02-12T03:33:42.660Z,64.98
2023-02-12T03:34:44.115Z,65.04
2023-02-12T03:36:01.890Z,65.15
2023-02-12T03:37:05.425Z,65.16
2023-02-12T03:38:19.972Z,65.37
2023-02-12T03:39:30.411Z,65.47
2023-02-12T03:40:35.425Z,65.62
2023-02-12T03:41:50.382Z,65.68
2023-02-12T03:42:59.273Z,65.70
2023-02-12T03:44:23.789Z,65.78
2023-02-12T03:45:34.054Z,65.77
2023-02-12T03:46:43.159Z,65.61
2023-02-12T03:47:46.627Z,65.96
2023-02-12T03:49:00.047Z,65.97
2023-02-12T03:50:13.640Z,66.00
2023-02-12T03:51:15.088Z,66.01
2023-02-12T03:52:16.516Z,65.93
2023-02-12T03:53:18.046Z,65.90
2023-02-12T03:54:20.122Z,66.04
2023-02-12T03:55:21.572Z,65.98
2023-02-12T03:56:27.165Z,66.03
2023-02-12T03:57:31.443Z,65.85
2023-02-12T03:58:33.103Z,66.01
2023-02-12T03:59:35.149Z,66.00
2023-02-12T04:00:37.341Z,65.78
2023-02-12T04:01:38.966Z,65.81
2023-02-12T04:02:41.153Z,65.78
2023-02-12T04:03:42.659Z,65.82
2023-02-12T04:04:44.335Z,65.71
2023-02-12T04:05:45.892Z,65.69
2023-02-12T04:06:47.869Z,65.61
2023-02-12T04:07:49.541Z,65.70
2023-02-12T04:08:51.024Z,65.70
2023-02-12T04:09:52.497Z,65.74
2023-02-12T04:11:00.841Z,65.67
2023-02-12T04:12:02.315Z,65.61
2023-02-12T04:13:19.475Z,65.66
2023-02-12T04:14:26.918Z,65.65
2023-02-12T04:15:32.258Z,65.56
2023-02-12T04:16:38.108Z,65.62
2023-02-12T04:17:58.801Z,65.56
2023-02-12T04:19:00.477Z,65.56
2023-02-12T04:20:09.847Z,65.55
2023-02-12T04:21:20.705Z,65.67
2023-02-12T04:22:34.361Z,65.64
2023-02-12T04:23:54.458Z,65.70
2023-02-12T04:24:55.907Z,65.66
2023-02-12T04:25:58.279Z,65.83
2023-02-12T04:27:02.751Z,65.52
2023-02-12T04:28:04.223Z,65.65
2023-02-12T04:29:26.003Z,65.60
2023-02-12T04:30:44.215Z,65.78
2023-02-12T04:31:49.725Z,65.60
2023-02-12T04:32:52.778Z,65.49
2023-02-12T04:33:58.807Z,65.65
2023-02-12T04:35:06.313Z,65.49
2023-02-12T04:36:15.792Z,65.53
2023-02-12T04:37:18.229Z,65.54
2023-02-12T04:38:21.754Z,65.59
2023-02-12T04:39:24.311Z,65.57
2023-02-12T04:40:25.767Z,65.55
2023-02-12T04:41:27.306Z,65.54
2023-02-12T04:42:28.800Z,65.49
2023-02-12T04:43:31.029Z,65.72
2023-02-12T04:44:33.752Z,65.48
2023-02-12T04:45:35.430Z,65.53
2023-02-12T04:46:36.915Z,65.40
2023-02-12T04:47:38.502Z,65.42
2023-02-12T04:48:49.129Z,65.42
2023-02-12T04:49:50.713Z,65.40
2023-02-12T04:50:52.160Z,65.35
2023-02-12T04:51:53.631Z,65.47
2023-02-12T04:52:55.110Z,65.50
2023-02-12T04:53:56.580Z,65.48
2023-02-12T04:54:58.086Z,65.46
2023-02-12T04:55:59.563Z,65.43
2023-02-12T04:57:01.087Z,65.48
2023-02-12T04:58:02.603Z,65.48
2023-02-12T04:59:04.237Z,65.41
2023-02-12T05:00:06.244Z,65.62
2023-02-12T05:01:09.026Z,65.29
2023-02-12T05:02:10.510Z,65.49
2023-02-12T05:03:11.997Z,65.65
2023-02-12T05:04:13.917Z,65.41
2023-02-12T05:05:15.541Z,65.43
2023-02-12T05:06:17.034Z,65.54
2023-02-12T05:07:18.503Z,65.41
2023-02-12T05:08:19.959Z,65.59
2023-02-12T05:09:21.455Z,65.48
2023-02-12T05:10:22.953Z,65.34
2023-02-12T05:11:24.411Z,65.25
2023-02-12T05:12:25.896Z,65.28
2023-02-12T05:13:27.393Z,65.31
2023-02-12T05:14:29.208Z,65.31
2023-02-12T05:15:30.722Z,65.34
2023-02-12T05:16:32.210Z,65.26
2023-02-12T05:17:33.653Z,65.33
2023-02-12T05:18:35.237Z,65.41
2023-02-12T05:19:36.721Z,65.29
2023-02-12T05:20:38.497Z,65.25
2023-02-12T05:21:39.952Z,65.23
2023-02-12T05:22:41.847Z,65.33
2023-02-12T05:23:43.335Z,65.33
2023-02-12T05:24:45.384Z,65.32
2023-02-12T05:25:46.880Z,65.35
2023-02-12T05:26:48.601Z,65.28
2023-02-12T05:27:50.080Z,65.34
2023-02-12T05:28:51.543Z,65.49
2023-02-12T05:29:53.030Z,65.26
2023-02-12T05:30:54.564Z,65.27
2023-02-12T05:31:56.090Z,65.32
2023-02-12T05:32:57.661Z,65.28
2023-02-12T05:33:59.340Z,65.25
2023-02-12T05:35:00.880Z,65.16
2023-02-12T05:36:06.070Z,65.23
2023-02-12T05:37:07.610Z,65.24
2023-02-12T05:38:09.091Z,65.25
2023-02-12T05:39:10.557Z,65.11
2023-02-12T05:40:12.280Z,65.29
2023-02-12T05:41:16.531Z,65.29
2023-02-12T05:42:18.059Z,65.31
2023-02-12T05:43:19.544Z,65.29
2023-02-12T05:44:21.044Z,65.37
2023-02-12T05:45:27.828Z,65.38
2023-02-12T05:46:29.373Z,65.48
2023-02-12T05:47:30.847Z,65.52
2023-02-12T05:48:32.319Z,65.48
2023-02-12T05:49:34.607Z,65.39
2023-02-12T05:50:36.464Z,65.44
2023-02-12T05:51:42.624Z,65.45
2023-02-12T05:52:44.084Z,65.56
2023-02-12T05:53:45.537Z,65.38
2023-02-12T05:54:49.102Z,65.35
2023-02-12T05:55:50.599Z,65.39
2023-02-12T05:56:52.106Z,65.35
2023-02-12T05:57:53.632Z,65.66
2023-02-12T05:58:58.866Z,65.56
2023-02-12T06:00:00.354Z,65.65
2023-02-12T06:01:01.813Z,65.68
2023-02-12T06:02:03.327Z,65.48
2023-02-12T06:03:04.801Z,65.83
2023-02-12T06:04:08.015Z,65.69
2023-02-12T06:05:09.637Z,65.46
2023-02-12T06:06:11.276Z,65.59
2023-02-12T06:07:12.766Z,65.77
2023-02-12T06:08:14.235Z,65.70
2023-02-12T06:09:15.767Z,65.81
2023-02-12T06:10:17.296Z,65.87
2023-02-12T06:11:19.419Z,65.91
2023-02-12T06:12:21.182Z,65.79
2023-02-12T06:13:22.675Z,65.74
2023-02-12T06:14:24.213Z,65.61
2023-02-12T06:15:25.697Z,65.69
2023-02-12T06:16:27.528Z,65.52
2023-02-12T06:17:29.083Z,65.56
2023-02-12T06:18:30.581Z,65.64
2023-02-12T06:19:32.066Z,65.51
2023-02-12T06:20:33.542Z,65.48
2023-02-12T06:21:35.083Z,65.60
2023-02-12T06:22:38.301Z,65.54
2023-02-12T06:23:39.774Z,65.54
2023-02-12T06:24:41.257Z,65.70
2023-02-12T06:25:42.710Z,65.56
2023-02-12T06:26:44.186Z,65.80
2023-02-12T06:27:45.737Z,65.56
2023-02-12T06:28:47.259Z,65.68
2023-02-12T06:29:48.712Z,65.46
2023-02-12T06:30:50.240Z,65.50
2023-02-12T06:31:51.874Z,65.56
2023-02-12T06:32:53.441Z,65.57
2023-02-12T06:33:55.514Z,65.55
2023-02-12T06:34:56.972Z,65.60
2023-02-12T06:35:58.564Z,65.69
2023-02-12T06:37:00.133Z,65.58
2023-02-12T06:38:01.696Z,65.68
2023-02-12T06:39:03.373Z,65.43
2023-02-12T06:40:05.159Z,65.38
2023-02-12T06:41:06.654Z,65.58
2023-02-12T06:42:08.129Z,65.71
2023-02-12T06:43:09.609Z,65.33
2023-02-12T06:44:11.508Z,65.41
2023-02-12T06:45:12.966Z,65.40
2023-02-12T06:46:14.511Z,65.45
2023-02-12T06:47:16.090Z,65.48
2023-02-12T06:48:17.566Z,65.43
2023-02-12T06:49:19.123Z,65.55
2023-02-12T06:50:20.630Z,65.38
2023-02-12T06:51:23.479Z,65.35
2023-02-12T06:52:25.005Z,65.50
2023-02-12T06:53:26.511Z,65.52
2023-02-12T06:54:28.005Z,65.61
2023-02-12T06:55:29.461Z,65.55
2023-02-12T06:56:31.021Z,65.67
2023-02-12T06:57:32.557Z,65.71
2023-02-12T06:58:34.078Z,65.78
2023-02-12T06:59:35.603Z,65.91
2023-02-12T07:00:37.124Z,65.66
2023-02-12T07:01:38.609Z,65.49
2023-02-12T07:02:40.136Z,65.67
2023-02-12T07:03:42.013Z,65.80
2023-02-12T07:04:43.586Z,65.96
2023-02-12T07:05:46.155Z,65.92
2023-02-12T07:06:47.603Z,65.83
2023-02-12T07:07:49.235Z,65.60
2023-02-12T07:08:50.776Z,65.79
2023-02-12T07:09:52.248Z,65.81
2023-02-12T07:10:53.704Z,65.64
2023-02-12T07:11:56.846Z,65.59
2023-02-12T07:12:58.276Z,65.79
2023-02-12T07:13:59.904Z,65.84
2023-02-12T07:15:01.440Z,65.73
2023-02-12T07:16:03.642Z,65.90
2023-02-12T07:17:05.541Z,65.82
2023-02-12T07:18:07.075Z,66.03
2023-02-12T07:19:09.335Z,66.05
2023-02-12T07:20:11.060Z,66.17
2023-02-12T07:21:12.819Z,66.05
2023-02-12T07:22:14.287Z,66.14
2023-02-12T07:23:15.749Z,66.27
2023-02-12T07:24:18.257Z,66.14
2023-02-12T07:25:19.824Z,66.21
2023-02-12T07:26:21.481Z,66.12
2023-02-12T07:27:22.943Z,66.35
2023-02-12T07:28:24.469Z,66.01
2023-02-12T07:29:26.000Z,66.05
2023-02-12T07:30:27.569Z,65.97
2023-02-12T07:31:29.379Z,66.04
2023-02-12T07:32:32.110Z,66.49
2023-02-12T07:33:33.549Z,66.17
2023-02-12T07:34:35.014Z,66.42
2023-02-12T07:35:36.521Z,66.27
2023-02-12T07:36:38.315Z,66.26
2023-02-12T07:37:39.820Z,66.30
2023-02-12T07:38:41.345Z,66.13
2023-02-12T07:39:42.798Z,66.47
2023-02-12T07:40:44.299Z,66.35
2023-02-12T07:41:45.777Z,66.33
2023-02-12T07:42:49.989Z,66.37
2023-02-12T07:43:55.873Z,66.34
2023-02-12T07:44:57.338Z,66.42
2023-02-12T07:46:05.853Z,66.46
2023-02-12T07:47:07.410Z,66.43
2023-02-12T07:48:08.912Z,66.65
2023-02-12T07:49:17.712Z,66.62
2023-02-12T07:50:19.231Z,66.39
2023-02-12T07:51:20.753Z,66.54
2023-02-12T07:52:22.240Z,66.75
2023-02-12T07:53:23.812Z,66.80
2023-02-12T07:54:25.344Z,66.55
2023-02-12T07:55:26.892Z,66.52
2023-02-12T07:56:32.716Z,66.50
2023-02-12T07:57:36.999Z,66.48
2023-02-12T07:58:38.556Z,66.52
2023-02-12T07:59:39.996Z,66.48
2023-02-12T08:00:41.505Z,66.47
2023-02-12T08:01:43.898Z,66.47
2023-02-12T08:02:50.840Z,66.45
2023-02-12T08:03:52.420Z,66.54
2023-02-12T08:04:57.114Z,66.77
2023-02-12T08:05:58.596Z,66.70
2023-02-12T08:07:00.097Z,66.55
2023-02-12T08:08:01.555Z,66.76
2023-02-12T08:09:03.821Z,66.71
2023-02-12T08:10:05.584Z,66.58
2023-02-12T08:11:07.826Z,66.80
2023-02-12T08:12:09.353Z,66.64
2023-02-12T08:13:10.809Z,66.70
2023-02-12T08:14:12.825Z,66.71
2023-02-12T08:15:14.263Z,66.77
2023-02-12T08:16:16.708Z,66.76
2023-02-12T08:17:18.269Z,66.72
2023-02-12T08:18:19.750Z,66.76
2023-02-12T08:19:25.727Z,66.92
2023-02-12T08:20:27.783Z,66.44
2023-02-12T08:21:29.341Z,66.82
2023-02-12T08:22:30.816Z,66.96
2023-02-12T08:23:32.348Z,66.86
2023-02-12T08:24:33.790Z,66.85
2023-02-12T08:25:35.256Z,66.82
2023-02-12T08:26:37.521Z,66.50
2023-02-12T08:27:41.034Z,66.75
2023-02-12T08:28:43.443Z,66.76
2023-02-12T08:29:44.884Z,66.78
2023-02-12T08:30:46.455Z,66.65
2023-02-12T08:31:48.612Z,66.66
2023-02-12T08:32:50.255Z,66.88
2023-02-12T08:33:52.253Z,66.77
2023-02-12T08:34:53.778Z,66.70
2023-02-12T08:36:11.432Z,66.73
2023-02-12T08:37:13.014Z,66.85
2023-02-12T08:38:14.566Z,66.77
2023-02-12T08:39:16.335Z,66.71
2023-02-12T08:40:17.929Z,66.66
2023-02-12T08:41:23.414Z,66.77
2023-02-12T08:42:25.714Z,66.69
2023-02-12T08:43:27.245Z,66.71
2023-02-12T08:44:28.947Z,66.74
2023-02-12T08:45:30.468Z,66.88
2023-02-12T08:46:32.763Z,66.83
2023-02-12T08:47:34.322Z,66.93
2023-02-12T08:48:35.919Z,66.88
2023-02-12T08:49:37.401Z,66.88
2023-02-12T08:50:39.076Z,66.85
2023-02-12T08:51:41.496Z,66.94
2023-02-12T08:52:44.006Z,66.80
2023-02-12T08:53:46.273Z,67.05
2023-02-12T08:54:47.762Z,67.06
2023-02-12T08:55:49.797Z,66.84
2023-02-12T08:56:51.730Z,67.06
2023-02-12T08:57:57.804Z,67.16
2023-02-12T08:58:59.383Z,67.06
2023-02-12T09:00:00.844Z,67.07
2023-02-12T09:01:02.582Z,67.43
2023-02-12T09:02:08.631Z,67.61
2023-02-12T09:03:10.170Z,67.40
2023-02-12T09:04:13.337Z,67.52
2023-02-12T09:05:14.855Z,67.35
2023-02-12T09:06:16.740Z,67.50
2023-02-12T09:07:18.182Z,67.61
2023-02-12T09:08:19.685Z,67.61
2023-02-12T09:09:21.156Z,67.90
2023-02-12T09:10:22.638Z,67.82
2023-02-12T09:11:30.388Z,67.83
2023-02-12T09:12:31.881Z,67.86
2023-02-12T09:13:33.370Z,67.79
2023-02-12T09:14:34.869Z,67.83
2023-02-12T09:15:37.172Z,67.86
2023-02-12T09:16:40.340Z,68.05
2023-02-12T09:17:43.668Z,68.06
2023-02-12T09:18:45.276Z,68.16
2023-02-12T09:19:46.818Z,68.24
2023-02-12T09:20:48.330Z,68.18
2023-02-12T09:21:55.558Z,68.29
2023-02-12T09:23:00.427Z,68.32
2023-02-12T09:24:03.464Z,68.41
2023-02-12T09:25:05.622Z,68.49
2023-02-12T09:26:07.551Z,68.22
2023-02-12T09:27:09.020Z,68.24
2023-02-12T09:28:10.759Z,68.11
2023-02-12T09:29:12.282Z,68.23
2023-02-12T09:30:13.885Z,68.18
2023-02-12T09:31:16.412Z,67.92
2023-02-12T09:32:18.020Z,67.98
2023-02-12T09:33:19.544Z,67.86
2023-02-12T09:34:21.047Z,68.12
2023-02-12T09:35:23.086Z,68.01
2023-02-12T09:36:24.593Z,68.02
2023-02-12T09:37:26.087Z,67.88
2023-02-12T09:38:27.539Z,67.90
2023-02-12T09:39:30.715Z,67.95
2023-02-12T09:40:37.408Z,67.92
2023-02-12T09:41:45.048Z,68.06
2023-02-12T09:42:46.480Z,68.12
2023-02-12T09:43:47.942Z,68.08
2023-02-12T09:45:02.561Z,68.01
2023-02-12T09:46:24.402Z,67.98
2023-02-12T09:47:27.501Z,67.90
2023-02-12T09:48:35.494Z,67.88
2023-02-12T09:49:39.558Z,67.90
2023-02-12T09:50:54.054Z,67.93
2023-02-12T09:51:55.489Z,67.93
2023-02-12T09:52:59.157Z,68.05
2023-02-12T09:54:02.129Z,67.92
2023-02-12T09:55:03.663Z,68.01
2023-02-12T09:56:12.719Z,68.05
2023-02-12T09:57:22.951Z,67.90
2023-02-12T09:58:35.512Z,67.59
2023-02-12T09:59:41.633Z,67.92
2023-02-12T10:00:44.556Z,68.05
2023-02-12T10:01:46.104Z,68.03
2023-02-12T10:02:47.654Z,67.95
2023-02-12T10:03:50.305Z,67.94
2023-02-12T10:05:01.110Z,67.67
2023-02-12T10:06:04.480Z,67.95
2023-02-12T10:07:08.944Z,67.69
2023-02-12T10:08:15.993Z,67.66
2023-02-12T10:09:23.562Z,67.73
2023-02-12T10:10:25.006Z,67.58
2023-02-12T10:11:45.334Z,67.81
2023-02-12T10:12:46.816Z,67.80
2023-02-12T10:13:48.314Z,67.66
2023-02-12T10:15:01.815Z,67.99
2023-02-12T10:16:15.351Z,67.77
2023-02-12T10:17:35.309Z,67.85
2023-02-12T10:18:47.247Z,67.79
2023-02-12T10:19:49.154Z,67.55
2023-02-12T10:21:09.424Z,67.98
2023-02-12T10:22:13.805Z,67.79
2023-02-12T10:23:25.220Z,67.72
2023-02-12T10:24:26.719Z,67.85
2023-02-12T10:25:40.517Z,67.59
2023-02-12T10:26:51.386Z,67.80
2023-02-12T10:27:54.089Z,67.62
2023-02-12T10:28:55.728Z,67.66
2023-02-12T10:29:59.138Z,67.70
2023-02-12T10:31:00.692Z,67.44
2023-02-12T10:32:04.936Z,67.87
2023-02-12T10:33:07.265Z,67.69
2023-02-12T10:34:14.372Z,67.65
2023-02-12T10:35:16.493Z,67.42
2023-02-12T10:36:17.981Z,67.60
2023-02-12T10:37:40.095Z,67.66
2023-02-12T10:38:42.664Z,67.55
2023-02-12T10:39:47.902Z,67.69
2023-02-12T10:40:50.438Z,67.83
2023-02-12T10:42:11.843Z,67.42
2023-02-12T10:43:13.381Z,67.56
2023-02-12T10:44:14.836Z,67.62
2023-02-12T10:45:17.469Z,67.71
2023-02-12T10:46:19.100Z,67.73
2023-02-12T10:47:21.590Z,67.60
2023-02-12T10:48:24.733Z,67.57
2023-02-12T10:49:26.480Z,67.36
2023-02-12T10:50:36.981Z,67.53
2023-02-12T10:51:41.245Z,67.27
2023-02-12T10:52:47.321Z,67.62
2023-02-12T10:53:49.471Z,67.55
2023-02-12T10:54:50.922Z,67.43
2023-02-12T10:56:18.856Z,67.12
2023-02-12T10:57:26.585Z,67.32
2023-02-12T10:58:28.111Z,67.30
2023-02-12T10:59:29.683Z,67.29
2023-02-12T11:00:32.161Z,67.23
2023-02-12T11:01:34.386Z,67.30
2023-02-12T11:02:36.146Z,67.36
2023-02-12T11:03:39.841Z,67.47
2023-02-12T11:04:41.338Z,67.18
2023-02-12T11:05:43.200Z,67.31
2023-02-12T11:06:57.367Z,67.35
2023-02-12T11:07:58.806Z,67.33
2023-02-12T11:09:00.417Z,67.20
2023-02-12T11:10:01.960Z,67.23
2023-02-12T11:11:04.416Z,67.04
2023-02-12T11:12:06.110Z,67.01
2023-02-12T11:13:21.424Z,66.70
2023-02-12T11:14:22.995Z,66.92
2023-02-12T11:15:24.979Z,67.04
2023-02-12T11:16:27.470Z,66.77
2023-02-12T11:17:29.828Z,66.77
2023-02-12T11:18:34.831Z,66.98
2023-02-12T11:19:36.394Z,67.01
2023-02-12T11:20:39.144Z,67.19
2023-02-12T11:21:40.645Z,66.85
2023-02-12T11:23:01.316Z,66.99
2023-02-12T11:24:21.056Z,67.05
2023-02-12T11:25:23.032Z,66.84
2023-02-12T11:26:25.630Z,66.93
2023-02-12T11:27:28.777Z,66.71
2023-02-12T11:28:30.756Z,66.98
2023-02-12T11:29:33.688Z,66.76
2023-02-12T11:30:35.236Z,66.85
2023-02-12T11:31:37.495Z,66.70
2023-02-12T11:32:39.120Z,66.89
2023-02-12T11:33:40.616Z,66.92
2023-02-12T11:34:42.079Z,66.75
2023-02-12T11:36:06.769Z,66.80
2023-02-12T11:37:18.498Z,66.82
2023-02-12T11:38:49.070Z,66.70
2023-02-12T11:39:50.560Z,66.40
2023-02-12T11:40:53.854Z,66.63
2023-02-12T11:41:56.434Z,66.54
2023-02-12T11:42:58.502Z,66.75
2023-02-12T11:44:00.182Z,66.57
2023-02-12T11:45:01.690Z,66.43
2023-02-12T11:46:03.345Z,66.21
2023-02-12T11:47:08.944Z,66.50
2023-02-12T11:48:20.481Z,66.49
2023-02-12T11:49:23.680Z,66.39
2023-02-12T11:50:26.550Z,66.57
2023-02-12T11:51:29.447Z,66.24
2023-02-12T11:52:34.115Z,66.13
2023-02-12T11:53:37.011Z,66.19
2023-02-12T11:54:42.073Z,66.17
2023-02-12T11:55:43.594Z,66.09
2023-02-12T11:56:45.605Z,66.21
2023-02-12T11:57:48.055Z,66.28
2023-02-12T11:58:50.024Z,66.43
2023-02-12T11:59:51.568Z,66.20
2023-02-12T12:00:54.639Z,66.25
2023-02-12T12:01:56.252Z,66.22
2023-02-12T12:03:00.620Z,66.49
2023-02-12T12:04:06.754Z,66.16
2023-02-12T12:05:09.843Z,66.07
2023-02-12T12:06:22.944Z,66.09
2023-02-12T12:07:25.753Z,66.43
2023-02-12T12:08:28.920Z,66.54
2023-02-12T12:09:35.496Z,66.06
2023-02-12T12:10:40.948Z,65.83
2023-02-12T12:11:57.386Z,65.62
2023-02-12T12:12:59.804Z,65.47
2023-02-12T12:14:07.180Z,65.84
2023-02-12T12:15:46.096Z,65.92
2023-02-12T12:17:07.268Z,65.88
2023-02-12T12:18:48.409Z,65.66
2023-02-12T12:19:56.774Z,65.81
2023-02-12T12:21:01.539Z,65.77
2023-02-12T12:22:15.606Z,66.13
2023-02-12T12:23:20.812Z,65.87
2023-02-12T12:24:24.650Z,65.63
2023-02-12T12:25:27.371Z,65.67
2023-02-12T12:26:29.549Z,65.65
2023-02-12T12:27:59.148Z,65.42
2023-02-12T12:29:06.657Z,65.66
2023-02-12T12:30:11.446Z,65.17
2023-02-12T12:31:13.009Z,65.52
2023-02-12T12:32:14.612Z,65.64
2023-02-12T12:33:17.859Z,65.76
2023-02-12T12:34:20.050Z,65.91
2023-02-12T12:35:22.999Z,65.90
2023-02-12T12:36:36.716Z,65.49
2023-02-12T12:37:44.487Z,65.49
2023-02-12T12:39:04.368Z,65.53
2023-02-12T12:40:09.336Z,65.48
2023-02-12T12:41:29.328Z,65.06
2023-02-12T12:42:49.752Z,64.86
2023-02-12T12:43:57.152Z,64.69
2023-02-12T12:44:58.616Z,65.21
2023-02-12T12:46:18.617Z,65.42
2023-02-12T12:47:25.977Z,64.95
2023-02-12T12:48:37.632Z,65.37
2023-02-12T12:49:49.384Z,64.92
2023-02-12T12:50:50.814Z,64.58
2023-02-12T12:52:10.829Z,64.88
2023-02-12T12:53:24.865Z,64.60
2023-02-12T12:54:35.244Z,64.99
2023-02-12T12:55:55.735Z,65.13
2023-02-12T12:56:58.633Z,64.89
2023-02-12T12:58:00.059Z,64.64
2023-02-12T12:59:13.793Z,64.83
2023-02-12T13:00:33.924Z,64.49
2023-02-12T13:01:35.366Z,63.78
2023-02-12T13:02:55.658Z,63.54
2023-02-12T13:03:59.885Z,63.78
2023-02-12T13:05:01.353Z,63.86
2023-02-12T13:06:14.019Z,63.89
2023-02-12T13:07:18.015Z,63.31
2023-02-12T13:08:36.020Z,63.72
2023-02-12T13:09:40.876Z,63.73
2023-02-12T13:10:46.656Z,63.63
2023-02-12T13:11:54.975Z,63.25
2023-02-12T13:13:00.537Z,62.63
2023-02-12T13:14:12.878Z,62.73
2023-02-12T13:15:19.308Z,62.78
2023-02-12T13:16:20.858Z,63.23
2023-02-12T13:17:22.370Z,62.78
2023-02-12T13:18:26.926Z,62.75
2023-02-12T13:19:28.342Z,62.61
2023-02-12T13:20:35.814Z,62.88
2023-02-12T13:21:41.817Z,63.00
2023-02-12T13:22:43.282Z,63.31
2023-02-12T13:23:52.052Z,62.60
2023-02-12T13:25:05.919Z,62.71
2023-02-12T13:26:19.185Z,62.65
2023-02-12T13:27:22.049Z,62.60
2023-02-12T13:28:41.155Z,62.62
2023-02-12T13:29:49.666Z,62.53
2023-02-12T13:30:51.880Z,62.33
2023-02-12T13:31:55.063Z,62.13
2023-02-12T13:33:02.493Z,62.31
2023-02-12T13:34:04.730Z,62.13
2023-02-12T13:35:06.451Z,62.07
2023-02-12T13:36:08.128Z,62.14
2023-02-12T13:37:13.376Z,62.05
2023-02-12T13:38:19.048Z,62.43
2023-02-12T13:39:20.534Z,62.06
2023-02-12T13:40:22.930Z,61.79
2023-02-12T13:41:24.428Z,62.25
2023-02-12T13:42:32.380Z,62.04
2023-02-12T13:43:54.093Z,61.83
2023-02-12T13:45:03.383Z,61.81
2023-02-12T13:46:19.940Z,62.16
2023-02-12T13:47:27.688Z,62.45
2023-02-12T13:48:34.708Z,62.23
2023-02-12T13:49:48.977Z,62.33